Time;durP1;ratioP1;P1;durP2;ratioP2;P2;SDS_P1;SDS_P2;PMS_P1;PMS_P2;Temp;Humidity;BMP_temperature;BMP_pressure;BME280_temperature;BME280_humidity;BME280_pressure;Samples;Min_cycle;Max_cycle;Signal;HPM_P1;HPM_P2
2022/06/06 00:01:48;;;;;;;114.75;37.42;;;;;;;13.69;100.00;101355.75;5115247;28;20019;-75
2022/06/06 00:04:15;;;;;;;129.70;37.72;;;;;;;13.68;100.00;101351.44;5115695;28;20142;-75
2022/06/06 00:06:41;;;;;;;119.70;38.38;;;;;;;13.65;100.00;101343.66;5114514;28;20031;-75
2022/06/06 00:09:09;;;;;;;118.25;38.70;;;;;;;13.66;100.00;101353.22;5115390;28;20065;-75
2022/06/06 00:11:35;;;;;;;105.32;37.90;;;;;;;13.56;100.00;101354.38;5115010;28;20052;-75
2022/06/06 00:14:01;;;;;;;104.05;38.30;;;;;;;13.51;100.00;101351.03;5114420;28;20463;-74
2022/06/06 00:16:26;;;;;;;119.68;36.22;;;;;;;13.50;100.00;101349.31;5115110;28;20031;-75
2022/06/06 00:18:51;;;;;;;110.53;35.55;;;;;;;13.58;100.00;101356.06;5114780;28;20102;-75
2022/06/06 00:21:16;;;;;;;120.10;37.13;;;;;;;13.58;100.00;101353.44;5114282;28;20051;-75
2022/06/06 00:23:42;;;;;;;127.85;37.63;;;;;;;13.59;100.00;101355.16;5114754;28;20106;-75
2022/06/06 00:26:10;;;;;;;115.40;38.28;;;;;;;13.54;100.00;101343.09;5114265;28;20030;-75
2022/06/06 00:28:37;;;;;;;119.38;38.65;;;;;;;13.56;100.00;101342.13;5114601;28;20028;-75
2022/06/06 00:34:48;;;;;;;117.63;39.65;;;;;;;13.55;100.00;101335.19;5114861;28;20106;-75
2022/06/06 00:36:33;;;;;;;126.40;38.67;;;;;;;13.56;100.00;101333.44;5114969;28;20042;-75
2022/06/06 00:38:59;;;;;;;136.63;40.00;;;;;;;13.57;100.00;101329.94;5114954;28;20068;-75
2022/06/06 00:41:24;;;;;;;139.52;41.47;;;;;;;13.55;100.00;101321.25;5113861;28;20425;-75
2022/06/06 00:44:15;;;;;;;129.95;40.25;;;;;;;13.52;100.00;101329.19;5114249;28;20059;-75
2022/06/06 00:46:44;;;;;;;121.18;39.22;;;;;;;13.51;100.00;101325.72;5114243;28;20024;-75
2022/06/06 00:49:24;;;;;;;124.90;38.72;;;;;;;13.52;100.00;101326.56;5113716;28;20043;-75
2022/06/06 00:51:51;;;;;;;133.07;41.15;;;;;;;13.51;100.00;101327.47;5114184;28;20092;-75
2022/06/06 00:54:17;;;;;;;123.60;41.55;;;;;;;13.49;100.00;101324.03;5113940;28;20019;-74
2022/06/06 00:56:50;;;;;;;125.50;40.15;;;;;;;13.49;100.00;101322.25;5113889;28;20085;-74
2022/06/06 00:59:23;;;;;;;133.63;40.75;;;;;;;13.53;100.00;101312.56;5114528;28;20028;-75
2022/06/06 01:01:50;;;;;;;125.47;40.88;;;;;;;13.55;100.00;101321.25;5113269;28;20016;-74
2022/06/06 01:04:18;;;;;;;151.57;44.85;;;;;;;13.54;100.00;101330.88;5114203;28;20032;-74
2022/06/06 01:06:45;;;;;;;164.27;46.13;;;;;;;13.54;100.00;101319.53;5114058;28;20029;-75
2022/06/06 01:09:12;;;;;;;149.50;46.30;;;;;;;13.55;100.00;101326.47;5113332;28;20429;-75
2022/06/06 01:11:41;;;;;;;154.63;47.30;;;;;;;13.54;100.00;101327.38;5113644;28;20111;-75
2022/06/06 01:14:10;;;;;;;149.32;48.97;;;;;;;13.53;100.00;101331.75;5114143;28;20391;-74
2022/06/06 01:16:48;;;;;;;179.18;49.58;;;;;;;13.56;100.00;101328.19;5112969;28;20450;-74
2022/06/06 01:19:45;;;;;;;157.27;49.13;;;;;;;13.56;100.00;101323.81;5114213;28;20057;-75
2022/06/06 01:22:37;;;;;;;145.02;47.65;;;;;;;13.55;100.00;101322.09;5099413;28;20407;-74
2022/06/06 01:25:22;;;;;;;154.55;49.50;;;;;;;13.53;100.00;101325.66;5102849;28;20035;-75
2022/06/06 01:28:20;;;;;;;189.43;49.78;;;;;;;13.54;100.00;101323.00;5113484;28;20348;-75
2022/06/06 01:30:52;;;;;;;141.45;48.92;;;;;;;13.55;100.00;101331.72;5112591;28;20501;-75
2022/06/06 01:33:17;;;;;;;148.45;48.38;;;;;;;13.54;100.00;101328.25;5113675;28;20023;-75
2022/06/06 01:35:46;;;;;;;152.77;49.85;;;;;;;13.57;100.00;101325.53;5113274;28;20050;-75
2022/06/06 01:38:13;;;;;;;153.20;51.20;;;;;;;13.57;100.00;101329.94;5112791;28;20479;-75
2022/06/06 01:40:50;;;;;;;148.05;48.65;;;;;;;13.59;100.00;101333.34;5113385;28;20027;-75
2022/06/06 01:43:20;;;;;;;147.02;48.70;;;;;;;13.59;100.00;101323.72;5113787;28;20015;-75
2022/06/06 01:45:52;;;;;;;160.35;49.17;;;;;;;13.61;100.00;101333.31;5112665;28;20420;-75
2022/06/06 01:48:32;;;;;;;160.68;48.20;;;;;;;13.58;100.00;101331.63;5113605;28;20118;-75
2022/06/06 01:50:58;;;;;;;146.35;45.60;;;;;;;13.59;100.00;101328.94;5112723;28;20418;-75
2022/06/06 01:53:25;;;;;;;134.52;43.95;;;;;;;13.61;100.00;101325.44;5113559;28;20471;-75
2022/06/06 01:55:52;;;;;;;147.40;42.72;;;;;;;13.60;100.00;101321.94;5113010;28;20104;-75
2022/06/06 01:58:27;;;;;;;130.35;42.28;;;;;;;13.64;100.00;101322.75;5112575;28;20043;-75
2022/06/06 02:00:53;;;;;;;126.95;41.70;;;;;;;13.64;100.00;101315.75;5113236;28;20030;-74
2022/06/06 02:03:19;;;;;;;133.18;40.65;;;;;;;13.62;100.00;101312.28;5113368;28;20028;-75
2022/06/06 02:05:45;;;;;;;120.53;37.90;;;;;;;13.64;100.00;101315.75;5112441;28;20482;-75
2022/06/06 02:08:10;;;;;;;126.55;39.00;;;;;;;13.65;100.00;101301.72;5113380;28;20019;-75
2022/06/06 02:10:36;;;;;;;125.45;37.03;;;;;;;13.58;100.00;101282.72;5113219;28;20031;-75
2022/06/06 02:13:02;;;;;;;106.95;35.22;;;;;;;13.56;100.00;101291.50;5112445;28;20019;-74
2022/06/06 02:15:28;;;;;;;118.07;35.85;;;;;;;13.55;100.00;101300.28;5118168;28;20050;-75
2022/06/06 02:17:54;;;;;;;115.40;36.97;;;;;;;13.55;100.00;101295.91;5119950;27;20028;-74
2022/06/06 02:20:22;;;;;;;125.80;35.67;;;;;;;13.60;100.00;101303.63;5119338;27;20053;-75
2022/06/06 02:22:47;;;;;;;117.07;37.25;;;;;;;13.60;100.00;101308.84;5119789;27;20024;-74
2022/06/06 02:25:14;;;;;;;115.57;35.40;;;;;;;13.59;100.00;101304.53;5120196;27;20524;-74
2022/06/06 02:27:40;;;;;;;109.40;36.17;;;;;;;13.63;100.00;101314.00;5118730;27;20379;-75
2022/06/06 02:30:09;;;;;;;115.55;36.38;;;;;;;13.62;100.00;101312.28;5120041;27;20027;-75
2022/06/06 02:32:34;;;;;;;117.50;37.25;;;;;;;13.57;100.00;101304.59;5119496;27;20066;-74
2022/06/06 02:35:00;;;;;;;110.65;36.65;;;;;;;13.58;100.00;101315.91;5119320;27;20062;-75
2022/06/06 02:37:25;;;;;;;121.05;37.05;;;;;;;13.59;100.00;101309.75;5119810;27;20055;-75
2022/06/06 02:39:51;;;;;;;115.32;37.42;;;;;;;13.55;100.00;101305.53;5118743;28;20035;-75
2022/06/06 02:42:16;;;;;;;117.35;38.20;;;;;;;13.53;100.00;101310.78;5119683;27;20544;-75
2022/06/06 02:44:42;;;;;;;114.53;36.33;;;;;;;13.54;100.00;101304.66;5119415;27;20027;-74
2022/06/06 02:47:07;;;;;;;134.98;38.55;;;;;;;13.54;100.00;101294.19;5119017;27;20084;-75
2022/06/06 02:49:36;;;;;;;126.35;38.47;;;;;;;13.56;100.00;101300.22;5119417;27;20394;-75
2022/06/06 02:52:03;;;;;;;113.93;37.78;;;;;;;13.52;100.00;101301.22;5119743;27;20110;-74
2022/06/06 02:54:29;;;;;;;123.28;37.70;;;;;;;13.48;100.00;101309.22;5118633;27;20034;-75
2022/06/06 02:56:56;;;;;;;119.15;37.90;;;;;;;13.47;100.00;101303.13;5119348;27;20035;-75
2022/06/06 02:59:23;;;;;;;120.53;37.95;;;;;;;13.49;100.00;101308.31;5119913;27;20106;-75
2022/06/06 03:01:49;;;;;;;120.57;39.35;;;;;;;13.47;100.00;101308.38;5118899;27;20023;-75
2022/06/06 03:04:15;;;;;;;131.63;39.58;;;;;;;13.45;100.00;101304.06;5119692;27;20556;-75
2022/06/06 03:07:17;;;;;;;119.53;39.20;;;;;;;13.45;100.00;101306.69;5119237;27;20115;-75
2022/06/06 03:10:27;;;;;;;118.53;36.95;;;;;;;13.44;100.00;101310.19;5118479;28;20031;-75
2022/06/06 03:13:04;;;;;;;125.95;40.35;;;;;;;13.41;100.00;101308.53;5101215;28;20087;-75
2022/06/06 03:22:43;;;;;;;105.43;37.22;;;;;;;13.23;100.00;101304.63;5119366;28;20078;-75
2022/06/06 03:25:38;;;;;;;110.65;34.83;;;;;;;13.25;100.00;101309.84;5036584;28;20038;-75
2022/06/06 03:28:18;;;;;;;116.32;36.47;;;;;;;13.20;100.00;101309.94;5115660;28;20088;-75
2022/06/06 03:30:56;;;;;;;102.53;35.65;;;;;;;13.16;100.00;101310.06;5115311;28;20032;-75
2022/06/06 03:33:52;;;;;;;104.47;34.40;;;;;;;13.13;100.00;101305.75;5116201;28;20043;-75
2022/06/06 03:36:32;;;;;;;105.50;36.22;;;;;;;13.10;100.00;101314.56;5115182;28;20028;-74
2022/06/06 03:39:05;;;;;;;105.85;34.78;;;;;;;13.09;100.00;101315.47;5116131;28;20040;-75
2022/06/06 03:41:39;;;;;;;95.55;34.80;;;;;;;12.99;100.00;101315.75;5115738;28;20125;-74
2022/06/06 03:44:24;;;;;;;93.28;33.63;;;;;;;12.90;100.00;101319.44;5115060;28;20024;-74
2022/06/06 03:47:15;;;;;;;83.43;32.47;;;;;;;12.77;100.00;101318.03;5115576;28;20552;-74
2022/06/06 03:50:01;;;;;;;71.93;30.95;;;;;;;12.76;100.00;101325.03;5115408;28;20028;-74
2022/06/06 03:52:46;;;;;;;82.72;31.23;;;;;;;12.76;100.00;101314.56;5115965;28;20032;-74
2022/06/06 03:55:24;;;;;;;80.25;29.90;;;;;;;12.76;100.00;101325.03;5115365;28;20039;-74
2022/06/06 03:57:52;;;;;;;75.63;30.10;;;;;;;12.72;100.00;101331.25;5114701;28;20035;-74
2022/06/06 04:00:19;;;;;;;81.80;31.00;;;;;;;12.59;100.00;101321.97;5115687;28;20034;-75
2022/06/06 04:02:45;;;;;;;75.28;29.25;;;;;;;12.56;100.00;101317.69;5115174;27;20429;-74
2022/06/06 04:05:17;;;;;;;77.60;29.77;;;;;;;12.51;100.00;101327.38;5114670;28;20028;-75
2022/06/06 04:07:42;;;;;;;72.22;28.70;;;;;;;12.46;100.00;101339.72;5115574;28;20034;-74
2022/06/06 04:10:09;;;;;;;66.90;27.77;;;;;;;12.41;100.00;101333.72;5115467;28;20055;-74
2022/06/06 04:13:02;;;;;;;69.28;28.13;;;;;;;12.40;100.00;101343.31;5114075;28;20035;-74
2022/06/06 04:15:36;;;;;;;71.25;28.02;;;;;;;12.36;100.00;101341.69;5115412;28;20066;-74
2022/06/06 04:18:26;;;;;;;69.38;27.33;;;;;;;12.35;100.00;101339.09;5115149;28;20111;-74
2022/06/06 04:21:33;;;;;;;65.05;26.25;;;;;;;12.35;100.00;101339.94;5114815;28;20038;-74
2022/06/06 04:24:24;;;;;;;69.93;26.58;;;;;;;12.43;100.00;101350.25;5104309;28;20039;-74
2022/06/06 04:27:14;;;;;;;75.45;27.63;;;;;;;12.58;100.00;101362.09;5113963;28;20038;-75
2022/06/06 04:29:58;;;;;;;69.63;27.08;;;;;;;12.68;100.00;101347.03;5114871;28;20034;-75
2022/06/06 04:33:00;;;;;;;68.90;27.08;;;;;;;12.70;100.00;101351.34;5114166;28;20019;-74
2022/06/06 04:35:51;;;;;;;57.70;23.67;;;;;;;12.67;100.00;101358.41;5082295;28;20036;-75
2022/06/06 04:38:37;;;;;;;54.42;24.20;;;;;;;12.67;100.00;101367.09;5114495;27;20477;-75
2022/06/06 04:41:03;;;;;;;51.35;23.77;;;;;;;12.72;100.00;101359.13;5113907;28;20455;-74
2022/06/06 04:43:39;;;;;;;52.85;23.85;;;;;;;12.72;100.00;101353.91;5114942;28;20059;-74
2022/06/06 04:46:09;;;;;;;48.70;23.42;;;;;;;12.68;100.00;101358.34;5114814;28;20364;-74
2022/06/06 04:48:35;;;;;;;48.20;22.10;;;;;;;12.68;100.00;101362.72;5113606;27;20030;-74
2022/06/06 04:51:01;;;;;;;45.50;22.88;;;;;;;12.71;100.00;101367.91;5114631;28;20045;-74
2022/06/06 04:53:30;;;;;;;50.60;23.70;;;;;;;12.81;100.00;101354.53;5113577;28;20380;-74
2022/06/06 04:55:56;;;;;;;49.13;23.52;;;;;;;12.84;100.00;101351.00;5114316;28;20043;-74
2022/06/06 04:58:26;;;;;;;44.88;23.92;;;;;;;12.79;100.00;101355.50;5114528;28;20032;-74
2022/06/06 05:00:51;;;;;;;48.80;23.73;;;;;;;12.76;100.00;101358.19;5113356;28;20077;-74
2022/06/06 05:03:16;;;;;;;40.38;23.08;;;;;;;12.64;100.00;101347.09;5114388;28;20017;-74
2022/06/06 05:06:18;;;;;;;38.97;24.58;;;;;;;12.58;100.00;101362.09;5114178;28;20382;-74
2022/06/06 05:09:10;;;;;;;39.40;24.08;;;;;;;12.43;100.00;101358.09;5113271;28;20035;-74
2022/06/06 05:12:07;;;;;;;43.13;24.17;;;;;;;12.41;100.00;101357.25;5113956;28;20023;-74
2022/06/06 05:15:02;;;;;;;41.67;24.77;;;;;;;12.38;100.00;101357.31;5112927;28;20516;-74
2022/06/06 05:17:37;;;;;;;43.80;26.15;;;;;;;12.33;100.00;101352.22;5114199;28;20391;-74
2022/06/06 05:20:26;;;;;;;42.53;25.67;;;;;;;12.35;100.00;101355.63;5113991;28;20512;-74
2022/06/06 05:23:10;;;;;;;39.97;25.00;;;;;;;12.34;100.00;101372.22;5113109;28;20058;-74
2022/06/06 05:25:45;;;;;;;43.90;24.73;;;;;;;12.32;100.00;101374.00;5113962;28;20023;-74
2022/06/06 05:28:25;;;;;;;42.15;25.23;;;;;;;12.36;100.00;101370.44;5114035;28;20030;-74
2022/06/06 05:30:55;;;;;;;39.15;24.15;;;;;;;12.41;100.00;101376.41;5113038;28;20031;-74
2022/06/06 05:33:36;;;;;;;39.53;24.85;;;;;;;12.50;100.00;101375.34;5113966;28;20027;-75
2022/06/06 05:36:32;;;;;;;37.72;25.05;;;;;;;12.71;100.00;101368.75;5113201;28;20024;-74
2022/06/06 05:39:19;;;;;;;40.83;25.52;;;;;;;12.92;100.00;101363.91;5113780;28;20382;-74
2022/06/06 05:41:53;;;;;;;37.85;25.23;;;;;;;13.11;100.00;101359.91;5113573;28;20047;-75
2022/06/06 05:44:22;;;;;;;35.42;23.60;;;;;;;13.16;100.00;101363.28;5112934;28;20058;-74
2022/06/06 05:46:55;;;;;;;36.58;23.85;;;;;;;13.20;100.00;101379.75;5113154;28;20038;-74
2022/06/06 05:49:34;;;;;;;35.25;23.27;;;;;;;13.11;100.00;101373.00;5112886;28;20399;-74
2022/06/06 05:52:18;;;;;;;31.88;22.45;;;;;;;13.10;100.00;101373.91;5113616;28;20024;-74
2022/06/06 05:54:53;;;;;;;;;;;;;;;13.15;100.00;101379.03;5113571;28;20020;-75
2022/06/06 05:57:41;;;;;;;30.02;21.40;;;;;;;13.12;100.00;101377.34;5112583;28;20390;-74
2022/06/06 06:00:16;;;;;;;33.30;23.15;;;;;;;13.09;100.00;101370.44;5113396;28;20106;-74
2022/06/06 06:03:14;;;;;;;37.13;23.67;;;;;;;13.16;100.00;101376.38;5113004;28;20570;-74
2022/06/06 06:06:03;;;;;;;33.95;22.40;;;;;;;13.11;100.00;101376.50;5112360;28;20035;-74
2022/06/06 06:08:45;;;;;;;29.50;21.60;;;;;;;13.02;100.00;101373.25;5113274;28;20055;-74
2022/06/06 06:11:27;;;;;;;33.42;21.15;;;;;;;12.98;100.00;101376.81;5112682;28;20055;-74
2022/06/06 06:13:58;;;;;;;24.80;18.98;;;;;;;13.00;100.00;101373.28;5113017;28;20024;-74
2022/06/06 06:16:28;;;;;;;19.95;14.27;;;;;;;13.01;100.00;101381.97;5113332;28;20028;-74
2022/06/06 06:19:16;;;;;;;21.83;13.98;;;;;;;12.96;100.00;101379.50;5112060;28;20421;-74
2022/06/06 06:21:47;;;;;;;19.85;13.38;;;;;;;12.95;100.00;101376.88;5112883;28;20031;-74
2022/06/06 06:24:18;;;;;;;16.30;12.10;;;;;;;12.95;100.00;101372.53;5113280;28;20031;-74
2022/06/06 06:26:46;;;;;;;20.42;10.90;;;;;;;13.02;100.00;101395.03;5112255;28;20055;-74
2022/06/06 06:29:11;;;;;;;14.60;10.60;;;;;;;13.07;100.00;101392.31;5113018;28;20019;-74
2022/06/06 06:31:50;;;;;;;14.95;10.23;;;;;;;13.11;100.00;101397.44;5112728;28;20077;-74
2022/06/06 06:34:37;;;;;;;15.32;9.77;;;;;;;13.22;100.00;101401.53;5113129;28;20023;-74
2022/06/06 06:37:02;;;;;;;15.30;9.52;;;;;;;13.21;100.00;101405.91;5113049;28;20036;-74
2022/06/06 06:40:06;;;;;;;14.37;9.23;;;;;;;13.30;100.00;101394.38;5112167;28;20414;-74
2022/06/06 06:42:34;;;;;;;19.17;9.23;;;;;;;13.33;100.00;101391.66;5112763;28;20305;-74
2022/06/06 06:45:07;;;;;;;12.68;8.57;;;;;;;13.35;100.00;101403.81;5112941;28;20360;-74
2022/06/06 06:47:35;;;;;;;15.75;7.70;;;;;;;13.21;100.00;101407.66;5112000;28;20024;-74
2022/06/06 06:50:29;;;;;;;10.93;6.45;;;;;;;13.15;100.00;101406.06;5112836;28;20114;-74
2022/06/06 06:53:30;;;;;;;9.90;5.45;;;;;;;13.16;100.00;101420.88;5111844;28;20061;-74
2022/06/06 06:56:17;;;;;;;11.00;5.22;;;;;;;13.10;100.00;101414.03;5069141;28;20119;-74
2022/06/06 06:58:48;;;;;;;7.80;5.10;;;;;;;13.18;100.00;101421.72;5112477;28;20045;-74
2022/06/06 07:01:23;;;;;;;9.00;5.00;;;;;;;13.30;100.00;101410.06;5114045;28;20095;-74
2022/06/06 07:10:40;;;;;;;7.00;4.05;;;;;;;13.64;100.00;101409.22;5116740;28;20088;-74
2022/06/06 07:13:47;;;;;;;9.35;3.80;;;;;;;13.57;100.00;101421.63;5116370;28;20111;-74
2022/06/06 07:16:22;;;;;;;4.45;3.35;;;;;;;13.79;100.00;101409.63;5115076;28;20071;-74
2022/06/06 07:18:55;;;;;;;6.75;3.40;;;;;;;14.15;100.00;101416.47;5116143;28;20034;-74
2022/06/06 07:21:23;;;;;;;9.87;3.87;;;;;;;14.44;100.00;101419.09;5115449;28;20035;-74
2022/06/06 07:23:50;;;;;;;5.63;3.13;;;;;;;14.56;100.00;101415.28;5116187;28;20303;-73
2022/06/06 07:26:17;;;;;;;7.82;3.47;;;;;;;14.48;100.00;101420.72;5116425;28;20036;-73
2022/06/06 07:28:42;;;;;;;11.88;3.28;;;;;;;14.22;100.00;101418.91;5115159;28;20028;-73
2022/06/06 07:31:43;;;;;;;11.27;3.45;;;;;;;14.14;100.00;101431.38;5116316;28;20064;-74
2022/06/06 07:34:23;;;;;;;4.72;2.92;;;;;;;13.99;100.00;101426.53;5116353;28;20095;-73
2022/06/06 07:37:24;;;;;;;6.28;2.92;;;;;;;14.05;100.00;101427.22;5114950;28;20489;-73
2022/06/06 07:40:19;;;;;;;4.13;2.65;;;;;;;14.23;100.00;101435.50;5115805;28;20093;-73
2022/06/06 07:43:20;;;;;;;3.83;2.95;;;;;;;14.39;100.00;101430.66;5114979;28;20036;-74
2022/06/06 07:45:48;;;;;;;9.65;3.33;;;;;;;14.55;100.00;101424.06;5115850;28;20027;-73
2022/06/06 07:48:22;;;;;;;6.10;2.63;;;;;;;14.57;99.94;101424.88;5115743;28;20024;-73
2022/06/06 07:50:57;;;;;;;8.63;3.10;;;;;;;14.80;100.00;101436.41;5114941;28;20428;-73
2022/06/06 07:53:36;;;;;;;4.20;2.35;;;;;;;14.86;95.59;101438.84;5116010;28;20019;-73
2022/06/06 07:56:33;;;;;;;3.65;2.35;;;;;;;14.93;99.50;101432.50;5115688;28;20035;-73
2022/06/06 07:59:01;;;;;;;5.20;2.40;;;;;;;15.25;99.46;101423.56;5115674;28;20102;-74
2022/06/06 08:01:37;;;;;;;4.00;2.10;;;;;;;15.39;95.06;101430.97;5115546;28;20031;-73
2022/06/06 08:04:19;;;;;;;3.78;2.08;;;;;;;15.27;97.62;101427.00;5115122;28;20035;-73
2022/06/06 08:06:55;;;;;;;6.47;2.30;;;;;;;15.12;94.31;101436.25;5115412;28;20031;-73
2022/06/06 08:09:47;;;;;;;3.85;1.85;;;;;;;15.25;99.04;101434.06;5115285;28;20042;-73
2022/06/06 08:12:24;;;;;;;5.22;2.40;;;;;;;15.53;94.78;101434.00;5114336;28;20062;-73
2022/06/06 08:15:07;;;;;;;4.38;2.15;;;;;;;15.56;92.94;101430.38;5115039;28;20456;-73
2022/06/06 08:17:55;;;;;;;6.95;2.15;;;;;;;15.59;95.41;101428.50;5114292;28;20047;-73
2022/06/06 08:20:59;;;;;;;4.65;1.90;;;;;;;15.55;95.01;101428.69;5115550;28;20028;-73
2022/06/06 08:23:27;;;;;;;5.50;2.35;;;;;;;15.53;92.15;101431.38;5084039;28;20063;-73
2022/06/06 08:25:54;;;;;;;5.80;1.70;;;;;;;15.57;91.63;101429.50;5113912;28;20034;-73
2022/06/06 08:28:21;;;;;;;5.57;2.25;;;;;;;15.60;92.99;101424.13;5114987;28;20539;-73
2022/06/06 08:30:46;;;;;;;3.05;1.73;;;;;;;15.56;91.25;101423.34;5114956;28;20086;-73
2022/06/06 08:33:12;;;;;;;2.67;1.70;;;;;;;15.71;90.79;101429.88;5114378;28;20047;-73
2022/06/06 08:36:15;;;;;;;3.72;1.73;;;;;;;15.96;90.50;101418.47;5114625;28;20027;-73
2022/06/06 08:39:01;;;;;;;4.22;1.73;;;;;;;16.18;90.37;101416.75;5113914;28;20036;-73
2022/06/06 08:42:05;;;;;;;5.55;2.00;;;;;;;16.26;91.29;101413.88;5114961;27;20027;-73
2022/06/06 08:44:52;;;;;;;3.00;1.65;;;;;;;16.22;85.33;101413.13;5114408;28;20523;-73
2022/06/06 08:47:34;;;;;;;6.65;1.90;;;;;;;16.28;90.54;101412.00;5114097;28;20031;-73
2022/06/06 08:50:46;;;;;;;5.55;1.98;;;;;;;16.41;90.65;101405.34;5114712;28;20103;-73
2022/06/06 08:53:30;;;;;;;2.38;1.80;;;;;;;16.53;86.39;101402.25;5113977;28;20168;-73
2022/06/06 08:56:10;;;;;;;3.88;1.90;;;;;;;16.39;87.78;101417.75;5114242;28;20044;-73
2022/06/06 08:58:49;;;;;;;5.13;1.75;;;;;;;16.13;88.61;101403.78;5114258;28;20086;-73
2022/06/06 09:01:34;;;;;;;3.95;2.08;;;;;;;16.06;92.32;101407.59;5113668;28;20061;-73
2022/06/06 09:04:35;;;;;;;4.55;2.15;;;;;;;16.19;88.25;101402.72;5114625;27;20102;-73
2022/06/06 09:07:25;;;;;;;6.22;2.20;;;;;;;16.62;87.10;101401.91;5113740;28;20027;-73
2022/06/06 09:10:19;;;;;;;6.38;2.03;;;;;;;17.30;84.51;101394.75;5113701;28;20504;-73
2022/06/06 09:13:11;;;;;;;8.55;2.05;;;;;;;17.25;84.33;101399.34;5114037;28;20039;-73
2022/06/06 09:15:48;;;;;;;5.88;2.35;;;;;;;16.87;85.07;101395.66;5113591;28;20106;-73
2022/06/06 09:18:51;;;;;;;4.35;2.25;;;;;;;16.87;87.59;101379.84;5114301;28;20034;-73
2022/06/06 09:21:54;;;;;;;3.83;1.90;;;;;;;16.84;87.51;101393.19;5113273;28;20058;-73
2022/06/06 09:24:55;;;;;;;4.57;1.67;;;;;;;16.62;87.16;101401.91;5113213;28;20039;-73
2022/06/06 09:27:20;;;;;;;4.53;2.03;;;;;;;16.32;89.56;101403.09;5114097;28;20040;-73
2022/06/06 09:30:12;;;;;;;3.10;1.70;;;;;;;16.13;86.62;101393.28;5112683;28;20038;-73
2022/06/06 09:32:46;;;;;;;4.38;1.90;;;;;;;16.25;88.92;101396.34;5114025;28;20613;-73
2022/06/06 09:35:39;;;;;;;5.60;2.03;;;;;;;16.39;85.50;101394.06;5113067;28;20053;-73
2022/06/06 09:38:18;;;;;;;6.72;2.15;;;;;;;16.57;85.22;101388.03;5113872;28;20036;-73
2022/06/06 09:41:22;;;;;;;2.70;1.80;;;;;;;16.71;88.58;101384.88;5113382;28;20038;-73
2022/06/06 09:44:20;;;;;;;4.05;1.70;;;;;;;16.79;84.85;101387.22;5029883;28;20037;-73
2022/06/06 09:47:08;;;;;;;4.30;1.83;;;;;;;16.77;85.77;101383.78;5113223;28;20352;-74
2022/06/06 09:50:29;;;;;;;2.75;1.50;;;;;;;16.89;82.23;101378.03;5112370;28;20031;-73
2022/06/06 09:53:13;;;;;;;4.15;1.90;;;;;;;17.08;76.08;101378.13;5078978;28;20113;-73
2022/06/06 09:59:25;;;;;;;5.32;2.30;;;;;;;18.45;77.96;101365.81;5113513;28;20097;-73
2022/06/06 10:02:16;;;;;;;3.55;1.67;;;;;;;18.44;74.63;101363.22;5030353;28;20041;-73
2022/06/06 10:05:00;;;;;;;4.90;1.67;;;;;;;18.30;76.96;101358.63;5029723;28;20473;-74
2022/06/06 10:07:40;;;;;;;4.97;2.17;;;;;;;17.99;72.23;101364.50;5093206;28;20085;-73
2022/06/06 10:10:29;;;;;;;5.22;2.10;;;;;;;17.65;77.68;101363.34;5112743;28;20486;-73
2022/06/06 10:12:57;;;;;;;5.35;1.88;;;;;;;17.79;72.02;101362.78;5113293;28;20475;-73
2022/06/06 10:15:47;;;;;;;4.07;1.98;;;;;;;18.44;76.10;101356.19;5113274;28;20023;-73
2022/06/06 10:18:13;;;;;;;4.05;2.08;;;;;;;18.33;73.90;101353.19;5112429;28;20039;-73
2022/06/06 10:20:47;;;;;;;4.63;1.70;;;;;;;18.22;70.66;101344.94;5112789;28;20027;-73
2022/06/06 10:23:43;;;;;;;5.50;1.67;;;;;;;18.16;72.84;101354.00;5113430;28;20362;-73
2022/06/06 10:26:35;;;;;;;1.83;1.40;;;;;;;18.10;72.38;101351.66;5112579;28;20106;-73
2022/06/06 10:29:09;;;;;;;2.97;1.60;;;;;;;18.27;73.41;101340.28;5113168;28;20052;-73
2022/06/06 10:31:53;;;;;;;5.47;1.60;;;;;;;18.44;72.70;101348.28;5111908;28;20061;-73
2022/06/06 10:34:29;;;;;;;3.40;1.70;;;;;;;18.72;71.10;101344.31;5113122;28;20395;-73
2022/06/06 10:37:25;;;;;;;5.13;1.50;;;;;;;19.08;71.68;101343.38;5116155;28;20467;-73
2022/06/06 10:39:52;;;;;;;2.75;1.58;;;;;;;18.76;67.77;101351.13;5116415;28;20575;-73
2022/06/06 10:42:52;;;;;;;5.07;1.73;;;;;;;18.41;71.39;101374.81;5117282;28;20103;-73
2022/06/06 10:45:31;;;;;;;6.57;2.03;;;;;;;18.73;70.27;101363.66;5116054;28;20060;-73
2022/06/06 10:48:15;;;;;;;3.00;1.80;;;;;;;19.24;66.35;101362.81;5117159;28;20020;-73
2022/06/06 10:54:15;;;;;;;6.35;1.55;;;;;;;19.74;68.81;101361.97;5116094;28;20031;-73
2022/06/06 10:56:52;;;;;;;4.55;1.52;;;;;;;19.86;69.20;101352.53;5116554;28;20444;-73
2022/06/06 10:59:32;;;;;;;4.00;1.45;;;;;;;19.88;66.82;101353.28;5116052;28;20035;-73
2022/06/06 11:02:10;;;;;;;5.05;1.50;;;;;;;20.11;67.39;101338.81;5116773;28;20035;-73
2022/06/06 11:05:01;;;;;;;3.80;1.20;;;;;;;20.31;66.48;101338.56;5116615;28;20080;-73
2022/06/06 11:07:46;;;;;;;3.95;1.25;;;;;;;20.83;62.17;101340.03;5115741;28;20035;-73
2022/06/06 11:10:30;;;;;;;4.45;1.30;;;;;;;21.39;61.81;101337.63;5116643;28;20035;-73
2022/06/06 11:13:23;;;;;;;2.10;1.27;;;;;;;21.58;61.12;101338.22;5116742;27;20027;-73
2022/06/06 11:16:10;;;;;;;2.53;1.43;;;;;;;21.46;61.64;101323.03;5116541;28;20111;-73
2022/06/06 11:18:44;;;;;;;2.42;1.20;;;;;;;21.45;52.46;101324.84;5116165;28;20418;-73
2022/06/06 11:21:40;;;;;;;3.00;1.10;;;;;;;21.46;59.35;101331.00;5115549;28;20080;-73
2022/06/06 11:24:20;;;;;;;1.20;1.10;;;;;;;21.06;53.32;101314.81;5116383;28;20069;-74
2022/06/06 11:26:57;;;;;;;7.10;1.67;;;;;;;21.09;59.11;101327.91;5116018;28;20042;-73
2022/06/06 11:30:01;;;;;;;2.83;1.10;;;;;;;21.74;58.39;101320.38;5115396;28;20028;-73
2022/06/06 11:32:26;;;;;;;2.70;0.88;;;;;;;22.37;53.47;101308.41;5115535;28;20437;-73
2022/06/06 11:35:24;;;;;;;1.92;1.02;;;;;;;22.56;51.72;101313.38;5115019;28;20020;-73
2022/06/06 11:38:24;;;;;;;4.53;1.17;;;;;;;22.95;54.38;101311.66;5115967;28;20033;-74
2022/06/06 11:41:19;;;;;;;1.55;1.20;;;;;;;23.30;53.06;101306.56;5115925;28;20031;-74
2022/06/06 11:44:12;;;;;;;4.22;1.40;;;;;;;22.90;53.10;101321.72;5115671;28;20031;-73
2022/06/06 11:46:59;;;;;;;5.38;1.48;;;;;;;22.56;48.23;101321.34;5115259;28;20020;-73
2022/06/06 11:49:28;;;;;;;2.70;1.20;;;;;;;21.90;51.52;101322.91;5115151;28;20044;-73
2022/06/06 11:52:19;;;;;;;3.10;1.10;;;;;;;21.30;54.61;101319.59;5115472;28;20038;-73
2022/06/06 11:54:56;;;;;;;2.95;1.20;;;;;;;20.76;56.59;101328.94;5115113;28;20050;-73
2022/06/06 11:57:41;;;;;;;3.00;1.38;;;;;;;20.56;56.60;101318.63;5114891;28;20141;-73
2022/06/06 12:00:36;;;;;;;3.53;1.33;;;;;;;20.40;54.71;101308.03;5115587;28;20459;-73
2022/06/06 12:03:29;;;;;;;2.70;1.40;;;;;;;20.27;56.68;101317.63;5114797;28;20357;-73
2022/06/06 12:06:14;;;;;;;2.65;1.10;;;;;;;19.92;56.27;101320.44;5115160;28;20095;-73
2022/06/06 12:08:57;;;;;;;2.00;1.30;;;;;;;19.51;58.35;101325.28;5115191;28;20042;-73
2022/06/06 12:11:31;;;;;;;4.03;1.40;;;;;;;19.27;59.48;101336.22;5114964;28;20069;-73
2022/06/06 12:14:04;;;;;;;3.63;1.45;;;;;;;19.28;57.81;101318.56;5115457;28;20077;-73
2022/06/06 12:16:58;;;;;;;8.00;1.50;;;;;;;19.76;57.29;101325.72;5114829;27;20058;-73
2022/06/06 12:19:42;;;;;;;3.60;1.60;;;;;;;19.88;57.11;101327.72;5115563;27;20119;-73
2022/06/06 12:22:37;;;;;;;7.05;1.63;;;;;;;20.28;59.03;101316.69;5115583;28;20065;-73
2022/06/06 12:25:15;;;;;;;10.00;1.63;;;;;;;20.78;57.03;101326.19;5114751;28;20023;-73
2022/06/06 12:27:56;;;;;;;2.28;1.30;;;;;;;20.66;53.25;101317.16;5115103;28;20024;-73